createdAt,value
2018-07-11T00:01:24.704Z,17.30
2018-07-11T00:03:54.065Z,21.77
2018-07-11T00:06:23.613Z,17.17
2018-07-11T00:08:51.839Z,11.43
2018-07-11T00:11:20.129Z,16.33
2018-07-11T00:13:48.676Z,15.87
2018-07-11T00:16:17.244Z,15.87
2018-07-11T00:18:45.560Z,15.60
2018-07-11T00:21:13.901Z,16.33
2018-07-11T00:23:42.273Z,20.70
2018-07-11T00:26:11.200Z,17.13
2018-07-11T00:28:39.420Z,20.40
2018-07-11T00:31:07.479Z,21.53
2018-07-11T00:33:35.796Z,20.83
2018-07-11T00:36:04.049Z,22.73
2018-07-11T00:38:32.445Z,23.67
2018-07-11T00:41:01.349Z,24.27
2018-07-11T00:43:32.021Z,23.47
2018-07-11T00:46:00.988Z,24.07
2018-07-11T00:48:29.345Z,23.50
2018-07-11T00:50:58.008Z,23.77
2018-07-11T00:53:28.744Z,24.00
2018-07-11T00:55:57.776Z,23.10
2018-07-11T00:58:34.614Z,23.80
2018-07-11T01:01:06.618Z,22.13
2018-07-11T01:03:37.735Z,22.47
2018-07-11T01:06:06.120Z,23.37
2018-07-11T01:08:36.413Z,22.23
2018-07-11T01:11:16.684Z,21.30
2018-07-11T01:13:46.307Z,24.00
2018-07-11T01:16:18.520Z,27.20
2018-07-11T01:18:53.745Z,20.23
2018-07-11T01:27:03.763Z,21.93
2018-07-11T01:29:31.945Z,23.67
2018-07-11T01:32:00.156Z,22.20
2018-07-11T01:34:28.348Z,23.60
2018-07-11T01:36:56.549Z,22.73
2018-07-11T01:39:24.789Z,22.80
2018-07-11T01:41:53.044Z,21.70
2018-07-11T01:44:21.296Z,22.50
2018-07-11T01:46:50.848Z,30.93
2018-07-11T01:49:19.241Z,25.67
2018-07-11T01:51:58.657Z,22.97
2018-07-11T01:54:28.031Z,22.90
2018-07-11T01:56:56.416Z,23.70
2018-07-11T01:59:34.238Z,23.67
2018-07-11T02:02:03.239Z,23.77
2018-07-11T02:04:32.366Z,20.53
2018-07-11T02:07:00.820Z,22.10
2018-07-11T02:09:29.712Z,23.60
2018-07-11T02:11:58.007Z,23.17
2018-07-11T02:14:26.500Z,20.03
2018-07-11T02:16:55.240Z,22.87
2018-07-11T02:19:23.626Z,27.40
2018-07-11T02:21:52.512Z,19.13
2018-07-11T02:24:22.055Z,22.53
2018-07-11T02:26:50.601Z,20.60
2018-07-11T02:29:18.977Z,22.00
2018-07-11T02:31:47.232Z,21.60
2018-07-11T02:34:15.660Z,19.67
2018-07-11T02:36:43.940Z,23.03
2018-07-11T02:39:12.137Z,24.47
2018-07-11T02:41:40.388Z,19.83
2018-07-11T02:44:08.645Z,18.87
2018-07-11T02:46:42.600Z,24.27
2018-07-11T02:49:10.828Z,25.03
2018-07-11T02:51:39.056Z,20.47
2018-07-11T02:54:07.407Z,20.87
2018-07-11T02:56:35.685Z,29.37
2018-07-11T02:59:03.858Z,19.40
2018-07-11T03:01:32.163Z,22.20
2018-07-11T03:04:00.381Z,20.00
2018-07-11T03:06:28.585Z,23.63
2018-07-11T03:08:56.787Z,19.70
2018-07-11T03:11:24.990Z,21.33
2018-07-11T03:13:53.196Z,19.30
2018-07-11T03:16:21.352Z,23.73
2018-07-11T03:18:49.636Z,16.50
2018-07-11T03:21:17.877Z,18.57
2018-07-11T03:23:46.140Z,19.93
2018-07-11T03:26:14.461Z,20.50
2018-07-11T03:28:42.716Z,19.17
2018-07-11T03:31:10.900Z,21.77
2018-07-11T03:33:39.116Z,23.13
2018-07-11T03:36:07.416Z,22.67
2018-07-11T03:38:35.734Z,20.33
2018-07-11T03:41:03.931Z,23.30
2018-07-11T03:43:32.182Z,29.47
2018-07-11T03:46:00.356Z,19.20
2018-07-11T03:48:28.605Z,19.50
2018-07-11T03:50:56.929Z,20.10
2018-07-11T03:53:25.101Z,17.70
2018-07-11T03:55:53.332Z,20.27
2018-07-11T03:58:21.504Z,25.70
2018-07-11T04:00:49.704Z,18.57
2018-07-11T04:03:17.930Z,17.53
2018-07-11T04:05:49.021Z,27.40
2018-07-11T04:08:17.216Z,26.30
2018-07-11T04:10:45.380Z,18.97
2018-07-11T04:13:17.861Z,24.37
2018-07-11T04:15:46.081Z,19.97
2018-07-11T04:18:19.688Z,20.57
2018-07-11T04:20:47.916Z,24.07
2018-07-11T04:23:16.085Z,22.47
2018-07-11T04:25:44.360Z,25.67
2018-07-11T04:28:12.625Z,20.73
2018-07-11T04:30:41.005Z,21.17
2018-07-11T04:33:09.213Z,20.73
2018-07-11T04:35:37.523Z,22.27
2018-07-11T04:38:06.102Z,18.67
2018-07-11T04:40:34.432Z,19.00
2018-07-11T04:43:02.825Z,17.60
2018-07-11T04:45:31.261Z,23.60
2018-07-11T04:47:59.625Z,17.57
2018-07-11T04:50:27.957Z,19.70
2018-07-11T04:52:56.309Z,18.83
2018-07-11T04:55:24.685Z,17.50
2018-07-11T04:57:52.848Z,21.33
2018-07-11T05:00:21.061Z,18.17
2018-07-11T05:02:49.309Z,20.57
2018-07-11T05:05:17.605Z,15.63
2018-07-11T05:07:45.820Z,18.53
2018-07-11T05:10:14.033Z,16.53
2018-07-11T05:12:42.227Z,18.73
2018-07-11T05:15:10.424Z,22.10
2018-07-11T05:17:38.644Z,18.57
2018-07-11T05:20:06.872Z,17.23
2018-07-11T05:22:35.044Z,17.40
2018-07-11T05:25:03.307Z,15.53
2018-07-11T05:27:31.557Z,13.20
2018-07-11T05:29:59.756Z,15.03
2018-07-11T05:32:27.961Z,14.93
2018-07-11T05:34:56.180Z,13.30
2018-07-11T05:37:24.338Z,14.00
2018-07-11T05:39:52.535Z,13.27
2018-07-11T05:42:20.794Z,16.43
2018-07-11T05:44:48.954Z,15.17
2018-07-11T05:47:17.165Z,14.70
2018-07-11T05:49:46.025Z,16.53
2018-07-11T05:52:14.281Z,14.00
2018-07-11T05:54:42.476Z,14.70
2018-07-11T05:57:10.657Z,17.63
2018-07-11T05:59:38.878Z,13.30
2018-07-11T06:02:07.121Z,14.30
2018-07-11T06:04:35.340Z,11.93
2018-07-11T06:07:03.685Z,10.90
2018-07-11T06:09:31.870Z,12.07
2018-07-11T06:12:00.074Z,12.43
2018-07-11T06:14:28.244Z,17.70
2018-07-11T06:16:56.892Z,11.40
2018-07-11T06:19:25.053Z,9.37
2018-07-11T06:21:53.270Z,9.47
2018-07-11T06:24:21.483Z,7.10
2018-07-11T06:26:49.681Z,9.30
2018-07-11T06:29:17.849Z,5.60
2018-07-11T06:31:46.051Z,5.43
2018-07-11T06:34:14.248Z,7.80
2018-07-11T06:36:42.401Z,8.00
2018-07-11T06:39:10.632Z,7.13
2018-07-11T06:41:38.798Z,5.27
2018-07-11T06:44:07.020Z,10.33
2018-07-11T06:46:35.270Z,9.90
2018-07-11T06:49:03.511Z,4.93
2018-07-11T06:51:31.703Z,5.03
2018-07-11T06:53:59.864Z,9.50
2018-07-11T06:56:28.082Z,10.97
2018-07-11T06:58:56.281Z,5.20
2018-07-11T07:01:24.471Z,3.70
2018-07-11T07:03:52.736Z,6.07
2018-07-11T07:06:20.918Z,8.90
2018-07-11T07:08:49.200Z,4.80
2018-07-11T07:11:17.430Z,6.70
2018-07-11T07:13:45.796Z,10.13
2018-07-11T07:16:13.969Z,11.00
2018-07-11T07:18:42.177Z,3.30
2018-07-11T07:21:10.397Z,5.73
2018-07-11T07:23:38.706Z,4.50
2018-07-11T07:26:06.925Z,6.13
2018-07-11T07:28:35.141Z,6.53
2018-07-11T07:31:03.322Z,8.00
2018-07-11T07:33:31.520Z,7.07
2018-07-11T07:35:59.676Z,4.47
2018-07-11T07:38:27.962Z,5.40
2018-07-11T07:40:56.125Z,4.73
2018-07-11T07:43:25.950Z,5.87
2018-07-11T07:45:54.270Z,7.40
2018-07-11T07:48:25.441Z,4.30
2018-07-11T07:50:53.742Z,5.43
2018-07-11T07:53:22.120Z,6.77
2018-07-11T07:55:50.382Z,5.37
2018-07-11T07:58:18.776Z,4.93
2018-07-11T08:00:47.058Z,5.10
2018-07-11T08:03:15.389Z,4.17
2018-07-11T08:05:43.745Z,6.10
2018-07-11T08:08:11.920Z,7.20
2018-07-11T08:10:40.129Z,7.33
2018-07-11T08:13:08.301Z,5.23
2018-07-11T08:15:36.532Z,5.77
2018-07-11T08:18:04.620Z,6.80
2018-07-11T08:20:32.852Z,5.50
2018-07-11T08:23:13.861Z,6.13
2018-07-11T08:25:54.572Z,4.40
2018-07-11T08:30:34.323Z,3.57
2018-07-11T08:33:16.760Z,2.57
2018-07-11T08:38:08.912Z,3.90
2018-07-11T08:42:54.193Z,3.73
2018-07-11T08:45:34.406Z,3.53
2018-07-11T08:48:31.392Z,5.50
2018-07-11T08:51:20.409Z,2.77
2018-07-11T08:54:00.986Z,4.40
2018-07-11T08:57:18.045Z,5.13
2018-07-11T08:59:58.461Z,4.23
2018-07-11T09:04:42.837Z,6.63
2018-07-11T09:09:27.822Z,5.63
2018-07-11T09:12:46.777Z,9.03
2018-07-11T09:16:26.168Z,4.33
2018-07-11T09:25:18.874Z,3.17
2018-07-11T09:27:47.050Z,2.40
2018-07-11T09:30:15.429Z,2.53
2018-07-11T09:32:43.812Z,2.40
2018-07-11T09:35:11.994Z,6.00
2018-07-11T09:37:40.207Z,4.73
2018-07-11T09:40:08.408Z,4.90
2018-07-11T09:42:36.788Z,5.70
2018-07-11T09:45:05.091Z,3.50
2018-07-11T09:47:33.484Z,4.70
2018-07-11T09:50:01.748Z,8.60
2018-07-11T09:52:29.971Z,2.80
2018-07-11T09:54:58.308Z,13.87
2018-07-11T09:57:27.736Z,3.60
2018-07-11T09:59:56.153Z,4.33
2018-07-11T10:02:24.433Z,2.20
2018-07-11T10:04:52.945Z,3.73
2018-07-11T10:07:21.513Z,6.23
2018-07-11T10:09:49.848Z,2.53
2018-07-11T10:12:18.071Z,4.70
2018-07-11T10:14:46.253Z,2.77
2018-07-11T10:17:14.497Z,2.50
2018-07-11T10:19:42.757Z,4.20
2018-07-11T10:22:11.153Z,6.23
2018-07-11T10:24:39.549Z,4.47
2018-07-11T10:27:07.720Z,4.37
2018-07-11T10:29:35.973Z,4.73
2018-07-11T10:32:04.180Z,4.93
2018-07-11T10:34:32.402Z,4.77
2018-07-11T10:37:00.638Z,3.13
2018-07-11T10:39:28.861Z,3.30
2018-07-11T10:41:57.049Z,4.03
2018-07-11T10:44:25.249Z,10.90
2018-07-11T10:46:59.261Z,4.83
2018-07-11T10:49:27.589Z,3.70
2018-07-11T10:51:55.853Z,4.23
2018-07-11T10:54:24.088Z,6.30
2018-07-11T10:56:52.325Z,3.80
2018-07-11T10:59:20.792Z,4.80
2018-07-11T11:01:48.968Z,4.70
2018-07-11T11:04:20.368Z,6.90
2018-07-11T11:06:48.539Z,5.87
2018-07-11T11:09:16.768Z,7.37
2018-07-11T11:11:45.162Z,11.20
2018-07-11T11:14:13.416Z,3.77
2018-07-11T11:16:41.720Z,3.10
2018-07-11T11:19:09.900Z,3.70
2018-07-11T11:21:38.224Z,4.83
2018-07-11T11:24:06.591Z,6.47
2018-07-11T11:26:34.940Z,3.90
2018-07-11T11:29:03.257Z,4.80
2018-07-11T11:31:31.449Z,8.07
2018-07-11T11:33:59.714Z,6.20
2018-07-11T11:36:27.909Z,6.10
2018-07-11T11:38:56.140Z,6.87
2018-07-11T11:41:24.415Z,11.80
2018-07-11T11:43:52.657Z,7.40
2018-07-11T11:46:20.841Z,6.57
2018-07-11T11:48:49.197Z,17.67
2018-07-11T11:51:17.388Z,10.03
2018-07-11T11:53:45.616Z,8.00
2018-07-11T11:56:13.877Z,8.70
2018-07-11T11:58:42.102Z,7.10
2018-07-11T12:01:10.313Z,7.63
2018-07-11T12:03:38.489Z,6.53
2018-07-11T12:06:06.717Z,6.80
2018-07-11T12:08:34.925Z,5.73
2018-07-11T12:11:03.245Z,6.57
2018-07-11T12:13:31.404Z,9.80
2018-07-11T12:15:59.803Z,10.50
2018-07-11T12:18:27.763Z,14.40
2018-07-11T12:20:58.500Z,6.43
2018-07-11T12:23:26.896Z,7.73
2018-07-11T12:26:03.701Z,6.70
2018-07-11T12:28:31.960Z,7.27
2018-07-11T12:31:00.214Z,7.83
2018-07-11T12:33:28.665Z,5.97
2018-07-11T12:35:56.608Z,8.33
2018-07-11T12:38:25.053Z,5.87
2018-07-11T12:40:53.295Z,7.50
2018-07-11T12:43:21.580Z,6.90
2018-07-11T12:45:49.776Z,10.27
2018-07-11T12:48:23.712Z,7.40
2018-07-11T12:50:52.000Z,6.83
2018-07-11T12:53:20.277Z,10.00
2018-07-11T12:55:48.569Z,7.73
2018-07-11T12:58:18.594Z,7.07
2018-07-11T13:00:47.429Z,10.90
2018-07-11T13:03:15.460Z,6.70
2018-07-11T13:05:44.065Z,5.87
2018-07-11T13:08:12.452Z,5.47
2018-07-11T13:10:40.781Z,12.70
2018-07-11T13:13:08.739Z,8.50
2018-07-11T13:15:36.957Z,11.03
2018-07-11T13:18:05.194Z,8.63
2018-07-11T13:20:33.392Z,6.77
2018-07-11T13:23:01.648Z,8.23
2018-07-11T13:25:29.925Z,11.37
2018-07-11T13:27:58.227Z,6.30
2018-07-11T13:30:26.457Z,6.67
2018-07-11T13:32:54.678Z,12.47
2018-07-11T13:35:22.891Z,6.23
2018-07-11T13:37:51.129Z,9.23
2018-07-11T13:40:19.145Z,5.93
2018-07-11T13:42:47.316Z,6.97
2018-07-11T13:45:15.518Z,9.27
2018-07-11T13:47:43.669Z,7.53
2018-07-11T13:50:11.864Z,6.13
2018-07-11T13:52:40.249Z,8.20
2018-07-11T13:55:08.579Z,8.63
2018-07-11T13:57:36.968Z,10.93
2018-07-11T14:00:05.246Z,6.60
2018-07-11T14:02:33.529Z,12.30
2018-07-11T14:05:01.820Z,11.33
2018-07-11T14:07:30.182Z,5.97
2018-07-11T14:09:58.550Z,5.60
2018-07-11T14:12:26.906Z,5.67
2018-07-11T14:14:55.201Z,7.90
2018-07-11T14:17:23.944Z,5.20
2018-07-11T14:19:51.912Z,6.70
2018-07-11T14:22:20.288Z,6.73
2018-07-11T14:24:48.646Z,5.37
2018-07-11T14:27:17.312Z,8.27
2018-07-11T14:29:45.756Z,4.10
2018-07-11T14:32:13.959Z,4.50
2018-07-11T14:34:42.201Z,5.50
2018-07-11T14:37:10.802Z,8.23
2018-07-11T14:39:39.059Z,5.23
2018-07-11T14:42:07.292Z,5.43
2018-07-11T14:44:35.653Z,5.17
2018-07-11T14:47:04.158Z,7.50
2018-07-11T14:49:32.525Z,5.50
2018-07-11T14:52:00.952Z,8.87
2018-07-11T14:54:29.265Z,4.77
2018-07-11T14:56:57.644Z,10.30
2018-07-11T14:59:26.071Z,5.90
2018-07-11T15:01:54.311Z,13.90
2018-07-11T15:04:22.545Z,7.73
2018-07-11T15:06:50.789Z,10.20
2018-07-11T15:09:19.601Z,12.00
2018-07-11T15:11:47.589Z,9.60
2018-07-11T15:14:15.843Z,8.33
2018-07-11T15:16:44.105Z,8.60
2018-07-11T15:19:12.434Z,8.13
2018-07-11T15:21:40.829Z,11.33
2018-07-11T15:24:09.549Z,9.10
2018-07-11T15:26:37.936Z,9.50
2018-07-11T15:29:06.537Z,10.00
2018-07-11T15:31:34.890Z,10.20
2018-07-11T15:34:03.208Z,10.60
2018-07-11T15:36:31.572Z,7.17
2018-07-11T15:38:59.985Z,9.33
2018-07-11T15:41:28.376Z,14.23
2018-07-11T15:43:56.772Z,10.03
2018-07-11T15:46:25.049Z,9.70
2018-07-11T15:48:53.483Z,9.37
2018-07-11T15:51:21.841Z,7.67
2018-07-11T15:53:50.229Z,8.47
2018-07-11T15:56:18.686Z,11.60
2018-07-11T15:58:51.443Z,9.50
2018-07-11T16:01:19.798Z,11.80
2018-07-11T16:03:48.574Z,7.20
2018-07-11T16:06:17.837Z,10.43
2018-07-11T16:08:49.245Z,8.87
2018-07-11T16:11:17.568Z,10.67
2018-07-11T16:13:45.781Z,7.57
2018-07-11T16:16:14.100Z,9.03
2018-07-11T16:18:42.368Z,8.13
2018-07-11T16:21:10.641Z,8.23
2018-07-11T16:23:38.974Z,24.03
2018-07-11T16:26:07.265Z,9.40
2018-07-11T16:28:35.560Z,8.30
2018-07-11T16:31:03.845Z,11.93
2018-07-11T16:33:32.134Z,9.77
2018-07-11T16:36:00.492Z,10.97
2018-07-11T16:38:28.824Z,9.60
2018-07-11T16:40:57.153Z,11.23
2018-07-11T16:43:25.988Z,11.93
2018-07-11T16:45:55.399Z,9.33
2018-07-11T16:48:23.741Z,8.83
2018-07-11T16:50:52.026Z,12.30
2018-07-11T16:53:20.411Z,9.07
2018-07-11T16:55:48.761Z,9.90
2018-07-11T16:58:22.930Z,10.57
2018-07-11T17:00:51.801Z,12.20
2018-07-11T17:03:20.192Z,11.43
2018-07-11T17:05:52.883Z,14.03
2018-07-11T17:08:30.116Z,9.40
2018-07-11T17:11:06.981Z,7.77
2018-07-11T17:13:35.366Z,10.80
2018-07-11T17:16:03.721Z,11.33
2018-07-11T17:18:40.075Z,8.00
2018-07-11T17:21:09.756Z,9.73
2018-07-11T17:23:47.198Z,8.30
2018-07-11T17:26:15.701Z,11.53
2018-07-11T17:28:44.089Z,8.60
2018-07-11T17:31:12.441Z,8.10
2018-07-11T17:33:40.928Z,6.93
2018-07-11T17:36:09.289Z,8.10
2018-07-11T17:38:37.671Z,8.03
2018-07-11T17:41:06.023Z,11.37
2018-07-11T17:43:36.487Z,8.50
2018-07-11T17:46:05.872Z,8.33
2018-07-11T17:48:43.756Z,10.20
2018-07-11T17:52:15.305Z,9.80
2018-07-11T17:55:18.204Z,13.87
2018-07-11T17:57:53.080Z,8.67
2018-07-11T18:00:32.793Z,11.80
2018-07-11T18:03:04.965Z,10.53
2018-07-11T18:05:40.497Z,9.10
2018-07-11T18:08:09.540Z,13.13
2018-07-11T18:10:49.270Z,11.77
2018-07-11T18:13:24.556Z,8.20
2018-07-11T18:15:59.921Z,6.80
2018-07-11T18:18:36.048Z,8.93
2018-07-11T18:21:14.308Z,14.27
2018-07-11T18:25:54.928Z,6.57
2018-07-11T18:30:56.157Z,8.17
2018-07-11T18:33:36.223Z,8.67
2018-07-11T18:36:16.804Z,8.60
2018-07-11T18:39:05.608Z,7.77
2018-07-11T18:41:41.941Z,14.67
2018-07-11T18:44:17.668Z,7.60
2018-07-11T18:49:05.989Z,8.20
2018-07-11T18:51:48.011Z,9.10
2018-07-11T18:54:23.957Z,6.70
2018-07-11T18:57:31.182Z,10.93
2018-07-11T19:03:27.226Z,7.53
2018-07-11T19:06:36.148Z,9.87
2018-07-11T19:09:10.937Z,14.63
2018-07-11T19:11:54.101Z,7.60
2018-07-11T19:14:41.724Z,10.57
2018-07-11T19:17:22.764Z,15.50
2018-07-11T19:20:00.429Z,7.10
2018-07-11T19:22:42.736Z,6.57
2018-07-11T19:25:36.761Z,12.03
2018-07-11T19:28:16.168Z,7.80
2018-07-11T19:31:24.016Z,7.50
2018-07-11T19:35:58.977Z,8.20
2018-07-11T19:38:36.140Z,4.70
2018-07-11T19:41:25.162Z,7.60
2018-07-11T19:45:03.557Z,8.70
2018-07-11T19:47:42.853Z,8.17
2018-07-11T19:50:25.575Z,9.17
2018-07-11T19:53:16.877Z,9.33
2018-07-11T19:56:10.018Z,7.93
2018-07-11T19:58:38.445Z,7.50
2018-07-11T20:01:06.713Z,8.00
2018-07-11T20:03:35.070Z,7.27
2018-07-11T20:06:03.407Z,6.90
2018-07-11T20:08:31.709Z,7.33
2018-07-11T20:11:00.469Z,8.03
2018-07-11T20:13:28.733Z,8.10
2018-07-11T20:15:57.133Z,8.00
2018-07-11T20:18:25.413Z,8.63
2018-07-11T20:20:53.765Z,8.17
2018-07-11T20:23:22.021Z,10.33
2018-07-11T20:25:50.729Z,8.37
2018-07-11T20:28:19.291Z,6.77
2018-07-11T20:30:47.625Z,6.83
2018-07-11T20:33:17.380Z,8.73
2018-07-11T20:35:45.713Z,10.30
2018-07-11T20:38:13.933Z,8.73
2018-07-11T20:40:42.229Z,9.17
2018-07-11T20:43:10.632Z,7.87
2018-07-11T20:45:38.920Z,9.50
2018-07-11T20:48:07.271Z,16.00
2018-07-11T20:50:35.550Z,12.83
2018-07-11T20:53:03.833Z,9.80
2018-07-11T20:55:33.372Z,8.10
2018-07-11T20:58:12.629Z,8.20
2018-07-11T21:00:52.026Z,8.13
2018-07-11T21:05:37.254Z,9.60
2018-07-11T21:08:30.026Z,7.80
2018-07-11T21:11:18.614Z,8.87
2018-07-11T21:15:59.174Z,6.60
2018-07-11T21:18:53.951Z,7.07
2018-07-11T21:21:22.386Z,6.47
2018-07-11T21:23:50.599Z,10.10
2018-07-11T21:26:19.145Z,7.33
2018-07-11T21:28:47.551Z,6.83
2018-07-11T21:31:15.759Z,6.67
2018-07-11T21:33:44.462Z,6.53
2018-07-11T21:36:12.694Z,7.57
2018-07-11T21:38:40.881Z,7.13
2018-07-11T21:41:09.125Z,7.30
2018-07-11T21:43:37.384Z,6.70
2018-07-11T21:46:05.889Z,13.33
2018-07-11T21:48:34.168Z,7.50
2018-07-11T21:51:02.374Z,6.47
2018-07-11T21:53:30.632Z,8.27
2018-07-11T21:55:58.857Z,7.03
2018-07-11T21:58:27.737Z,6.13
2018-07-11T22:01:01.503Z,6.73
2018-07-11T22:03:29.893Z,6.70
2018-07-11T22:05:58.336Z,8.37
2018-07-11T22:08:26.573Z,7.53
2018-07-11T22:10:54.908Z,7.13
2018-07-11T22:13:23.084Z,6.87
2018-07-11T22:15:51.348Z,6.40
2018-07-11T22:18:36.130Z,6.37
2018-07-11T22:21:03.941Z,12.07
2018-07-11T22:23:30.928Z,7.40
2018-07-11T22:25:57.876Z,9.80
2018-07-11T22:28:24.729Z,7.37
2018-07-11T22:30:51.552Z,7.77
2018-07-11T22:33:18.411Z,6.90
2018-07-11T22:35:45.232Z,7.10
2018-07-11T22:38:12.545Z,7.00
2018-07-11T22:40:39.796Z,7.00
2018-07-11T22:43:06.934Z,6.50
2018-07-11T22:45:33.897Z,7.40
2018-07-11T22:48:00.807Z,7.07
2018-07-11T22:50:27.941Z,7.70
2018-07-11T22:52:54.794Z,7.23
2018-07-11T22:55:21.744Z,7.23
2018-07-11T22:57:48.921Z,7.13
2018-07-11T23:00:15.937Z,9.50
2018-07-11T23:02:42.758Z,9.20
2018-07-11T23:05:09.608Z,8.17
2018-07-11T23:07:36.425Z,8.50
2018-07-11T23:10:03.270Z,9.17
2018-07-11T23:12:30.117Z,12.90
2018-07-11T23:14:56.957Z,8.87
2018-07-11T23:17:23.772Z,7.60
2018-07-11T23:19:50.673Z,8.20
2018-07-11T23:22:17.528Z,9.00
2018-07-11T23:24:44.345Z,8.00
2018-07-11T23:27:11.200Z,7.87
2018-07-11T23:29:38.064Z,8.63
2018-07-11T23:32:04.881Z,9.23
2018-07-11T23:34:31.736Z,8.13
2018-07-11T23:36:58.559Z,7.83
2018-07-11T23:39:25.432Z,8.07
2018-07-11T23:41:52.298Z,8.67
2018-07-11T23:44:19.115Z,8.10
2018-07-11T23:46:45.957Z,8.93
2018-07-11T23:49:12.853Z,9.27
2018-07-11T23:51:39.770Z,7.93
2018-07-11T23:54:06.657Z,8.50
2018-07-11T23:56:33.468Z,11.17
2018-07-11T23:59:00.321Z,7.70
